sensor_id;sensor_type;location;lat;lon;timestamp;P1;durP1;ratioP1;P2;durP2;ratioP2
37067;SDS011;22982;42.848;25.468;2023-06-22T00:03:30;15.68;;;13.57;;
37067;SDS011;22982;42.848;25.468;2023-06-22T00:08:33;19.27;;;14.60;;
37067;SDS011;22982;42.848;25.468;2023-06-22T00:13:37;18.92;;;15.15;;
37067;SDS011;22982;42.848;25.468;2023-06-22T00:18:40;16.13;;;14.43;;
37067;SDS011;22982;42.848;25.468;2023-06-22T00:23:49;17.67;;;14.75;;
37067;SDS011;22982;42.848;25.468;2023-06-22T00:28:51;16.55;;;13.93;;
37067;SDS011;22982;42.848;25.468;2023-06-22T00:33:53;18.60;;;15.35;;
37067;SDS011;22982;42.848;25.468;2023-06-22T00:38:57;18.17;;;15.18;;
37067;SDS011;22982;42.848;25.468;2023-06-22T00:43:59;17.17;;;14.68;;
37067;SDS011;22982;42.848;25.468;2023-06-22T00:49:02;16.05;;;14.35;;
37067;SDS011;22982;42.848;25.468;2023-06-22T00:54:07;16.88;;;14.63;;
37067;SDS011;22982;42.848;25.468;2023-06-22T00:59:10;20.88;;;15.18;;
37067;SDS011;22982;42.848;25.468;2023-06-22T01:04:15;21.52;;;15.75;;
37067;SDS011;22982;42.848;25.468;2023-06-22T01:09:20;18.50;;;15.70;;
37067;SDS011;22982;42.848;25.468;2023-06-22T01:14:38;15.30;;;13.70;;
37067;SDS011;22982;42.848;25.468;2023-06-22T01:19:47;17.13;;;13.98;;
37067;SDS011;22982;42.848;25.468;2023-06-22T01:30:07;17.80;;;14.88;;
37067;SDS011;22982;42.848;25.468;2023-06-22T01:35:12;16.67;;;13.38;;
37067;SDS011;22982;42.848;25.468;2023-06-22T01:40:17;16.50;;;13.52;;
37067;SDS011;22982;42.848;25.468;2023-06-22T01:45:21;19.63;;;14.75;;
37067;SDS011;22982;42.848;25.468;2023-06-22T01:50:25;17.83;;;15.88;;
37067;SDS011;22982;42.848;25.468;2023-06-22T01:55:27;17.42;;;14.43;;
37067;SDS011;22982;42.848;25.468;2023-06-22T02:00:35;17.10;;;14.50;;
37067;SDS011;22982;42.848;25.468;2023-06-22T02:05:50;23.67;;;14.07;;
37067;SDS011;22982;42.848;25.468;2023-06-22T02:10:57;16.88;;;14.88;;
37067;SDS011;22982;42.848;25.468;2023-06-22T02:16:03;17.38;;;14.70;;
37067;SDS011;22982;42.848;25.468;2023-06-22T02:21:06;18.33;;;15.20;;
37067;SDS011;22982;42.848;25.468;2023-06-22T02:26:09;16.85;;;15.15;;
37067;SDS011;22982;42.848;25.468;2023-06-22T02:31:14;22.58;;;16.30;;
37067;SDS011;22982;42.848;25.468;2023-06-22T02:36:16;18.95;;;14.93;;
37067;SDS011;22982;42.848;25.468;2023-06-22T02:41:24;18.67;;;13.30;;
37067;SDS011;22982;42.848;25.468;2023-06-22T02:46:26;20.17;;;14.70;;
37067;SDS011;22982;42.848;25.468;2023-06-22T02:51:30;17.25;;;14.32;;
37067;SDS011;22982;42.848;25.468;2023-06-22T02:56:36;18.77;;;16.77;;
37067;SDS011;22982;42.848;25.468;2023-06-22T03:01:38;18.92;;;13.93;;
37067;SDS011;22982;42.848;25.468;2023-06-22T03:06:54;19.65;;;14.05;;
37067;SDS011;22982;42.848;25.468;2023-06-22T03:11:56;15.75;;;14.05;;
37067;SDS011;22982;42.848;25.468;2023-06-22T03:17:04;20.92;;;15.00;;
37067;SDS011;22982;42.848;25.468;2023-06-22T03:22:08;18.13;;;13.43;;
37067;SDS011;22982;42.848;25.468;2023-06-22T03:27:14;27.30;;;15.40;;
37067;SDS011;22982;42.848;25.468;2023-06-22T03:32:17;16.25;;;13.13;;
37067;SDS011;22982;42.848;25.468;2023-06-22T03:37:19;16.15;;;13.32;;
37067;SDS011;22982;42.848;25.468;2023-06-22T03:42:23;14.70;;;13.18;;
37067;SDS011;22982;42.848;25.468;2023-06-22T03:47:25;15.55;;;13.80;;
37067;SDS011;22982;42.848;25.468;2023-06-22T03:52:28;17.30;;;12.68;;
37067;SDS011;22982;42.848;25.468;2023-06-22T03:57:31;18.10;;;13.10;;
37067;SDS011;22982;42.848;25.468;2023-06-22T04:02:35;16.70;;;12.60;;
37067;SDS011;22982;42.848;25.468;2023-06-22T04:07:37;16.73;;;12.98;;
37067;SDS011;22982;42.848;25.468;2023-06-22T04:12:39;13.82;;;11.77;;
37067;SDS011;22982;42.848;25.468;2023-06-22T04:17:42;19.08;;;12.80;;
37067;SDS011;22982;42.848;25.468;2023-06-22T04:22:44;15.80;;;13.13;;
37067;SDS011;22982;42.848;25.468;2023-06-22T04:27:48;15.98;;;12.57;;
37067;SDS011;22982;42.848;25.468;2023-06-22T04:32:50;13.73;;;12.30;;
37067;SDS011;22982;42.848;25.468;2023-06-22T04:37:59;15.63;;;11.75;;
37067;SDS011;22982;42.848;25.468;2023-06-22T04:43:02;13.32;;;11.77;;
37067;SDS011;22982;42.848;25.468;2023-06-22T04:48:05;11.23;;;9.82;;
37067;SDS011;22982;42.848;25.468;2023-06-22T04:53:10;11.82;;;9.73;;
37067;SDS011;22982;42.848;25.468;2023-06-22T04:58:14;11.27;;;10.07;;
37067;SDS011;22982;42.848;25.468;2023-06-22T05:03:16;10.75;;;9.65;;
37067;SDS011;22982;42.848;25.468;2023-06-22T05:08:21;10.95;;;9.85;;
37067;SDS011;22982;42.848;25.468;2023-06-22T05:13:28;9.85;;;8.85;;
37067;SDS011;22982;42.848;25.468;2023-06-22T05:18:31;11.93;;;9.00;;
37067;SDS011;22982;42.848;25.468;2023-06-22T05:23:34;11.05;;;8.93;;
37067;SDS011;22982;42.848;25.468;2023-06-22T05:28:37;11.35;;;9.50;;
37067;SDS011;22982;42.848;25.468;2023-06-22T05:33:40;11.32;;;9.30;;
37067;SDS011;22982;42.848;25.468;2023-06-22T05:38:43;11.25;;;8.95;;
37067;SDS011;22982;42.848;25.468;2023-06-22T05:43:45;10.68;;;9.13;;
37067;SDS011;22982;42.848;25.468;2023-06-22T05:48:49;14.32;;;9.35;;
37067;SDS011;22982;42.848;25.468;2023-06-22T05:53:51;11.82;;;8.60;;
37067;SDS011;22982;42.848;25.468;2023-06-22T05:58:54;8.77;;;7.97;;
37067;SDS011;22982;42.848;25.468;2023-06-22T06:03:56;10.65;;;8.32;;
37067;SDS011;22982;42.848;25.468;2023-06-22T06:08:59;8.32;;;7.50;;
37067;SDS011;22982;42.848;25.468;2023-06-22T06:14:02;8.73;;;7.45;;
37067;SDS011;22982;42.848;25.468;2023-06-22T06:19:04;8.05;;;7.25;;
37067;SDS011;22982;42.848;25.468;2023-06-22T06:24:06;10.77;;;7.90;;
37067;SDS011;22982;42.848;25.468;2023-06-22T06:29:09;9.75;;;8.75;;
37067;SDS011;22982;42.848;25.468;2023-06-22T06:34:11;9.13;;;8.23;;
37067;SDS011;22982;42.848;25.468;2023-06-22T06:39:14;13.25;;;8.43;;
37067;SDS011;22982;42.848;25.468;2023-06-22T06:44:17;11.00;;;8.18;;
37067;SDS011;22982;42.848;25.468;2023-06-22T06:49:20;10.90;;;8.43;;
37067;SDS011;22982;42.848;25.468;2023-06-22T06:54:23;8.82;;;7.95;;
37067;SDS011;22982;42.848;25.468;2023-06-22T06:59:26;10.45;;;7.97;;
37067;SDS011;22982;42.848;25.468;2023-06-22T07:04:28;9.02;;;8.15;;
37067;SDS011;22982;42.848;25.468;2023-06-22T07:09:31;8.10;;;7.35;;
37067;SDS011;22982;42.848;25.468;2023-06-22T07:14:33;10.95;;;7.70;;
37067;SDS011;22982;42.848;25.468;2023-06-22T07:19:36;8.95;;;8.10;;
37067;SDS011;22982;42.848;25.468;2023-06-22T07:24:39;10.65;;;8.20;;
37067;SDS011;22982;42.848;25.468;2023-06-22T07:29:44;9.40;;;8.07;;
37067;SDS011;22982;42.848;25.468;2023-06-22T07:34:48;8.48;;;7.68;;
37067;SDS011;22982;42.848;25.468;2023-06-22T07:39:50;8.57;;;7.72;;
37067;SDS011;22982;42.848;25.468;2023-06-22T07:44:55;8.88;;;8.05;;
37067;SDS011;22982;42.848;25.468;2023-06-22T07:49:58;10.55;;;9.27;;
37067;SDS011;22982;42.848;25.468;2023-06-22T07:55:03;9.52;;;8.63;;
37067;SDS011;22982;42.848;25.468;2023-06-22T08:00:06;10.27;;;8.38;;
37067;SDS011;22982;42.848;25.468;2023-06-22T08:05:15;9.00;;;8.10;;
37067;SDS011;22982;42.848;25.468;2023-06-22T08:10:23;8.50;;;7.68;;
37067;SDS011;22982;42.848;25.468;2023-06-22T08:15:26;9.73;;;8.50;;
37067;SDS011;22982;42.848;25.468;2023-06-22T08:20:31;9.57;;;7.88;;
37067;SDS011;22982;42.848;25.468;2023-06-22T08:25:34;9.85;;;8.75;;
37067;SDS011;22982;42.848;25.468;2023-06-22T08:30:37;9.27;;;7.78;;
37067;SDS011;22982;42.848;25.468;2023-06-22T08:35:40;13.23;;;8.27;;
37067;SDS011;22982;42.848;25.468;2023-06-22T08:40:43;8.57;;;7.68;;
37067;SDS011;22982;42.848;25.468;2023-06-22T08:45:45;9.77;;;7.28;;
37067;SDS011;22982;42.848;25.468;2023-06-22T08:50:49;9.45;;;7.95;;
37067;SDS011;22982;42.848;25.468;2023-06-22T08:55:51;9.15;;;7.55;;
37067;SDS011;22982;42.848;25.468;2023-06-22T09:00:54;8.95;;;8.05;;
37067;SDS011;22982;42.848;25.468;2023-06-22T09:05:56;9.85;;;7.95;;
37067;SDS011;22982;42.848;25.468;2023-06-22T09:11:00;8.95;;;8.10;;
37067;SDS011;22982;42.848;25.468;2023-06-22T09:16:02;14.23;;;7.97;;
37067;SDS011;22982;42.848;25.468;2023-06-22T09:21:09;9.30;;;7.97;;
37067;SDS011;22982;42.848;25.468;2023-06-22T09:26:11;10.20;;;8.20;;
37067;SDS011;22982;42.848;25.468;2023-06-22T09:31:15;9.52;;;8.63;;
37067;SDS011;22982;42.848;25.468;2023-06-22T09:36:18;12.73;;;8.80;;
37067;SDS011;22982;42.848;25.468;2023-06-22T09:41:23;9.43;;;8.40;;
37067;SDS011;22982;42.848;25.468;2023-06-22T09:46:26;9.40;;;8.40;;
37067;SDS011;22982;42.848;25.468;2023-06-22T09:51:29;8.07;;;6.90;;
37067;SDS011;22982;42.848;25.468;2023-06-22T09:56:32;7.57;;;6.88;;
37067;SDS011;22982;42.848;25.468;2023-06-22T10:01:35;7.90;;;6.85;;
37067;SDS011;22982;42.848;25.468;2023-06-22T10:06:37;8.35;;;6.78;;
37067;SDS011;22982;42.848;25.468;2023-06-22T10:11:43;8.10;;;7.25;;
37067;SDS011;22982;42.848;25.468;2023-06-22T10:16:45;9.82;;;7.53;;
37067;SDS011;22982;42.848;25.468;2023-06-22T10:21:47;7.10;;;6.40;;
37067;SDS011;22982;42.848;25.468;2023-06-22T10:26:50;7.55;;;6.53;;
37067;SDS011;22982;42.848;25.468;2023-06-22T10:31:52;7.40;;;6.70;;
37067;SDS011;22982;42.848;25.468;2023-06-22T10:36:55;7.78;;;7.07;;
37067;SDS011;22982;42.848;25.468;2023-06-22T10:41:58;9.57;;;7.70;;
37067;SDS011;22982;42.848;25.468;2023-06-22T10:47:00;7.97;;;7.18;;
37067;SDS011;22982;42.848;25.468;2023-06-22T10:52:03;12.27;;;6.88;;
37067;SDS011;22982;42.848;25.468;2023-06-22T10:57:07;8.52;;;7.57;;
37067;SDS011;22982;42.848;25.468;2023-06-22T11:02:09;8.40;;;7.47;;
37067;SDS011;22982;42.848;25.468;2023-06-22T11:07:12;9.25;;;7.45;;
37067;SDS011;22982;42.848;25.468;2023-06-22T11:12:15;7.90;;;7.20;;
37067;SDS011;22982;42.848;25.468;2023-06-22T11:17:17;7.65;;;6.95;;
37067;SDS011;22982;42.848;25.468;2023-06-22T11:22:20;8.40;;;7.53;;
37067;SDS011;22982;42.848;25.468;2023-06-22T11:27:23;7.40;;;6.70;;
37067;SDS011;22982;42.848;25.468;2023-06-22T11:32:25;7.38;;;6.78;;
37067;SDS011;22982;42.848;25.468;2023-06-22T11:37:29;8.18;;;7.22;;
37067;SDS011;22982;42.848;25.468;2023-06-22T11:42:31;8.68;;;7.00;;
37067;SDS011;22982;42.848;25.468;2023-06-22T11:47:34;10.10;;;7.05;;
37067;SDS011;22982;42.848;25.468;2023-06-22T11:52:36;7.95;;;7.15;;
37067;SDS011;22982;42.848;25.468;2023-06-22T11:57:51;7.22;;;6.63;;
37067;SDS011;22982;42.848;25.468;2023-06-22T12:02:56;7.50;;;6.88;;
37067;SDS011;22982;42.848;25.468;2023-06-22T12:08:02;7.55;;;6.82;;
37067;SDS011;22982;42.848;25.468;2023-06-22T12:13:05;8.98;;;8.02;;
37067;SDS011;22982;42.848;25.468;2023-06-22T12:18:08;8.35;;;7.47;;
37067;SDS011;22982;42.848;25.468;2023-06-22T12:23:11;8.65;;;7.75;;
37067;SDS011;22982;42.848;25.468;2023-06-22T12:28:14;9.98;;;8.00;;
37067;SDS011;22982;42.848;25.468;2023-06-22T12:33:16;9.77;;;7.68;;
37067;SDS011;22982;42.848;25.468;2023-06-22T12:38:20;11.95;;;7.55;;
37067;SDS011;22982;42.848;25.468;2023-06-22T12:43:22;8.23;;;7.43;;
37067;SDS011;22982;42.848;25.468;2023-06-22T12:48:25;8.45;;;7.70;;
37067;SDS011;22982;42.848;25.468;2023-06-22T12:53:29;8.02;;;7.22;;
37067;SDS011;22982;42.848;25.468;2023-06-22T12:58:31;8.23;;;7.43;;
37067;SDS011;22982;42.848;25.468;2023-06-22T13:03:34;9.20;;;7.45;;
37067;SDS011;22982;42.848;25.468;2023-06-22T13:08:36;10.68;;;8.07;;
37067;SDS011;22982;42.848;25.468;2023-06-22T13:13:43;10.43;;;8.48;;
37067;SDS011;22982;42.848;25.468;2023-06-22T13:18:47;10.15;;;8.60;;
37067;SDS011;22982;42.848;25.468;2023-06-22T13:23:49;9.48;;;8.38;;
37067;SDS011;22982;42.848;25.468;2023-06-22T13:28:56;12.07;;;8.90;;
37067;SDS011;22982;42.848;25.468;2023-06-22T13:33:58;9.88;;;8.88;;
37067;SDS011;22982;42.848;25.468;2023-06-22T13:39:01;9.73;;;8.70;;
37067;SDS011;22982;42.848;25.468;2023-06-22T13:44:03;9.93;;;8.73;;
37067;SDS011;22982;42.848;25.468;2023-06-22T13:49:07;11.32;;;9.52;;
37067;SDS011;22982;42.848;25.468;2023-06-22T13:54:09;10.38;;;9.38;;
37067;SDS011;22982;42.848;25.468;2023-06-22T13:59:33;9.98;;;8.95;;
37067;SDS011;22982;42.848;25.468;2023-06-22T14:04:35;11.80;;;9.25;;
37067;SDS011;22982;42.848;25.468;2023-06-22T14:09:37;10.95;;;9.63;;
37067;SDS011;22982;42.848;25.468;2023-06-22T14:14:41;10.27;;;8.82;;
37067;SDS011;22982;42.848;25.468;2023-06-22T14:19:43;12.90;;;10.25;;
37067;SDS011;22982;42.848;25.468;2023-06-22T14:24:47;11.95;;;8.98;;
37067;SDS011;22982;42.848;25.468;2023-06-22T14:29:49;9.30;;;8.40;;
37067;SDS011;22982;42.848;25.468;2023-06-22T14:34:52;9.98;;;8.98;;
37067;SDS011;22982;42.848;25.468;2023-06-22T14:39:54;12.05;;;8.52;;
37067;SDS011;22982;42.848;25.468;2023-06-22T14:44:57;9.60;;;8.32;;
37067;SDS011;22982;42.848;25.468;2023-06-22T14:50:00;9.80;;;8.75;;
37067;SDS011;22982;42.848;25.468;2023-06-22T14:55:02;9.73;;;8.73;;
37067;SDS011;22982;42.848;25.468;2023-06-22T15:00:06;10.63;;;7.88;;
37067;SDS011;22982;42.848;25.468;2023-06-22T15:05:09;11.60;;;9.32;;
37067;SDS011;22982;42.848;25.468;2023-06-22T15:10:11;11.20;;;9.07;;
37067;SDS011;22982;42.848;25.468;2023-06-22T15:15:14;9.55;;;8.65;;
37067;SDS011;22982;42.848;25.468;2023-06-22T15:20:16;9.25;;;8.25;;
37067;SDS011;22982;42.848;25.468;2023-06-22T15:25:19;8.52;;;7.72;;
37067;SDS011;22982;42.848;25.468;2023-06-22T15:30:22;12.52;;;11.27;;
37067;SDS011;22982;42.848;25.468;2023-06-22T15:35:24;8.77;;;7.75;;
37067;SDS011;22982;42.848;25.468;2023-06-22T15:40:27;11.75;;;9.18;;
37067;SDS011;22982;42.848;25.468;2023-06-22T15:45:31;9.40;;;8.32;;
37067;SDS011;22982;42.848;25.468;2023-06-22T15:50:34;9.82;;;8.07;;
37067;SDS011;22982;42.848;25.468;2023-06-22T15:55:36;10.15;;;8.38;;
37067;SDS011;22982;42.848;25.468;2023-06-22T16:00:39;9.60;;;7.93;;
37067;SDS011;22982;42.848;25.468;2023-06-22T16:05:42;8.90;;;8.05;;
37067;SDS011;22982;42.848;25.468;2023-06-22T16:10:44;16.67;;;9.27;;
37067;SDS011;22982;42.848;25.468;2023-06-22T16:15:48;12.70;;;7.60;;
37067;SDS011;22982;42.848;25.468;2023-06-22T16:20:50;15.52;;;8.43;;
37067;SDS011;22982;42.848;25.468;2023-06-22T16:25:53;9.35;;;8.00;;
37067;SDS011;22982;42.848;25.468;2023-06-22T16:30:55;10.93;;;8.07;;
37067;SDS011;22982;42.848;25.468;2023-06-22T16:35:58;11.02;;;8.48;;
37067;SDS011;22982;42.848;25.468;2023-06-22T16:41:02;8.40;;;7.60;;
37067;SDS011;22982;42.848;25.468;2023-06-22T16:46:07;8.63;;;7.80;;
37067;SDS011;22982;42.848;25.468;2023-06-22T16:51:10;8.88;;;7.97;;
37067;SDS011;22982;42.848;25.468;2023-06-22T16:56:13;33.50;;;16.63;;
37067;SDS011;22982;42.848;25.468;2023-06-22T17:01:16;14.80;;;10.48;;
37067;SDS011;22982;42.848;25.468;2023-06-22T17:06:20;14.90;;;10.40;;
37067;SDS011;22982;42.848;25.468;2023-06-22T17:11:24;12.98;;;11.27;;
37067;SDS011;22982;42.848;25.468;2023-06-22T17:16:29;13.82;;;10.43;;
37067;SDS011;22982;42.848;25.468;2023-06-22T17:21:33;14.48;;;10.05;;
37067;SDS011;22982;42.848;25.468;2023-06-22T17:26:37;13.60;;;9.93;;
37067;SDS011;22982;42.848;25.468;2023-06-22T17:31:40;13.00;;;9.88;;
37067;SDS011;22982;42.848;25.468;2023-06-22T17:36:50;14.30;;;10.55;;
37067;SDS011;22982;42.848;25.468;2023-06-22T17:41:54;12.43;;;9.15;;
37067;SDS011;22982;42.848;25.468;2023-06-22T17:46:57;13.40;;;10.20;;
37067;SDS011;22982;42.848;25.468;2023-06-22T17:52:02;13.70;;;11.13;;
37067;SDS011;22982;42.848;25.468;2023-06-22T17:57:13;11.70;;;10.50;;
37067;SDS011;22982;42.848;25.468;2023-06-22T18:02:24;12.50;;;10.85;;
37067;SDS011;22982;42.848;25.468;2023-06-22T18:07:27;12.93;;;10.65;;
37067;SDS011;22982;42.848;25.468;2023-06-22T18:12:33;10.88;;;9.77;;
37067;SDS011;22982;42.848;25.468;2023-06-22T18:17:40;13.18;;;11.75;;
37067;SDS011;22982;42.848;25.468;2023-06-22T18:22:56;33.30;;;18.85;;
37067;SDS011;22982;42.848;25.468;2023-06-22T18:28:02;16.20;;;11.95;;
37067;SDS011;22982;42.848;25.468;2023-06-22T18:33:05;14.77;;;11.30;;
37067;SDS011;22982;42.848;25.468;2023-06-22T18:38:08;17.98;;;11.23;;
37067;SDS011;22982;42.848;25.468;2023-06-22T18:43:20;16.63;;;12.45;;
37067;SDS011;22982;42.848;25.468;2023-06-22T18:48:24;13.32;;;11.90;;
37067;SDS011;22982;42.848;25.468;2023-06-22T18:53:27;13.38;;;11.75;;
37067;SDS011;22982;42.848;25.468;2023-06-22T18:58:31;16.30;;;12.65;;
37067;SDS011;22982;42.848;25.468;2023-06-22T19:03:33;14.45;;;12.95;;
37067;SDS011;22982;42.848;25.468;2023-06-22T19:14:21;12.45;;;11.15;;
37067;SDS011;22982;42.848;25.468;2023-06-22T19:19:24;17.00;;;13.53;;
37067;SDS011;22982;42.848;25.468;2023-06-22T19:24:28;17.55;;;12.07;;
37067;SDS011;22982;42.848;25.468;2023-06-22T19:29:52;13.32;;;11.75;;
37067;SDS011;22982;42.848;25.468;2023-06-22T19:34:56;15.73;;;13.88;;
37067;SDS011;22982;42.848;25.468;2023-06-22T19:39:59;16.02;;;13.57;;
37067;SDS011;22982;42.848;25.468;2023-06-22T19:45:08;16.85;;;13.10;;
37067;SDS011;22982;42.848;25.468;2023-06-22T19:50:11;19.33;;;12.73;;
37067;SDS011;22982;42.848;25.468;2023-06-22T19:55:16;15.35;;;12.23;;
37067;SDS011;22982;42.848;25.468;2023-06-22T20:00:20;14.70;;;13.07;;
37067;SDS011;22982;42.848;25.468;2023-06-22T20:05:24;18.88;;;13.20;;
37067;SDS011;22982;42.848;25.468;2023-06-22T20:10:26;16.65;;;13.32;;
37067;SDS011;22982;42.848;25.468;2023-06-22T20:15:31;15.95;;;12.07;;
37067;SDS011;22982;42.848;25.468;2023-06-22T20:20:34;15.10;;;12.52;;
37067;SDS011;22982;42.848;25.468;2023-06-22T20:25:41;16.83;;;13.55;;
37067;SDS011;22982;42.848;25.468;2023-06-22T20:31:01;18.70;;;13.70;;
37067;SDS011;22982;42.848;25.468;2023-06-22T20:36:07;15.40;;;13.80;;
37067;SDS011;22982;42.848;25.468;2023-06-22T20:41:11;16.55;;;12.60;;
37067;SDS011;22982;42.848;25.468;2023-06-22T20:46:14;16.90;;;13.68;;
37067;SDS011;22982;42.848;25.468;2023-06-22T20:51:19;14.30;;;12.80;;
37067;SDS011;22982;42.848;25.468;2023-06-22T20:56:21;17.25;;;12.73;;
37067;SDS011;22982;42.848;25.468;2023-06-22T21:01:26;16.77;;;13.05;;
37067;SDS011;22982;42.848;25.468;2023-06-22T21:06:36;18.10;;;12.73;;
37067;SDS011;22982;42.848;25.468;2023-06-22T21:11:40;17.25;;;12.68;;
37067;SDS011;22982;42.848;25.468;2023-06-22T21:16:44;14.75;;;12.90;;
37067;SDS011;22982;42.848;25.468;2023-06-22T21:21:46;15.35;;;13.73;;
37067;SDS011;22982;42.848;25.468;2023-06-22T21:26:50;15.68;;;13.73;;
37067;SDS011;22982;42.848;25.468;2023-06-22T21:31:52;15.45;;;13.85;;
37067;SDS011;22982;42.848;25.468;2023-06-22T21:36:55;16.13;;;14.32;;
37067;SDS011;22982;42.848;25.468;2023-06-22T21:41:57;16.15;;;13.23;;
37067;SDS011;22982;42.848;25.468;2023-06-22T21:47:00;21.33;;;13.77;;
37067;SDS011;22982;42.848;25.468;2023-06-22T21:52:03;16.80;;;14.73;;
37067;SDS011;22982;42.848;25.468;2023-06-22T21:57:06;18.02;;;14.52;;
37067;SDS011;22982;42.848;25.468;2023-06-22T22:02:08;16.55;;;14.23;;
37067;SDS011;22982;42.848;25.468;2023-06-22T22:07:12;17.30;;;13.90;;
37067;SDS011;22982;42.848;25.468;2023-06-22T22:12:14;16.08;;;13.63;;
37067;SDS011;22982;42.848;25.468;2023-06-22T22:17:17;17.75;;;13.60;;
37067;SDS011;22982;42.848;25.468;2023-06-22T22:22:19;18.48;;;14.63;;
37067;SDS011;22982;42.848;25.468;2023-06-22T22:27:22;18.52;;;14.23;;
37067;SDS011;22982;42.848;25.468;2023-06-22T22:32:25;16.50;;;14.38;;
37067;SDS011;22982;42.848;25.468;2023-06-22T22:37:27;19.98;;;13.98;;
37067;SDS011;22982;42.848;25.468;2023-06-22T22:42:29;15.07;;;13.48;;
37067;SDS011;22982;42.848;25.468;2023-06-22T22:47:33;16.85;;;13.77;;
37067;SDS011;22982;42.848;25.468;2023-06-22T22:52:36;19.55;;;14.40;;
37067;SDS011;22982;42.848;25.468;2023-06-22T22:57:40;15.88;;;14.13;;
37067;SDS011;22982;42.848;25.468;2023-06-22T23:02:42;18.02;;;14.90;;
37067;SDS011;22982;42.848;25.468;2023-06-22T23:07:46;16.75;;;14.15;;
37067;SDS011;22982;42.848;25.468;2023-06-22T23:12:48;18.33;;;15.13;;
37067;SDS011;22982;42.848;25.468;2023-06-22T23:17:50;22.52;;;14.40;;
37067;SDS011;22982;42.848;25.468;2023-06-22T23:22:54;16.90;;;15.13;;
37067;SDS011;22982;42.848;25.468;2023-06-22T23:28:00;16.83;;;14.88;;
37067;SDS011;22982;42.848;25.468;2023-06-22T23:33:03;21.90;;;14.48;;
37067;SDS011;22982;42.848;25.468;2023-06-22T23:38:06;17.08;;;14.82;;
37067;SDS011;22982;42.848;25.468;2023-06-22T23:43:12;16.65;;;14.50;;
37067;SDS011;22982;42.848;25.468;2023-06-22T23:48:14;16.42;;;14.73;;
37067;SDS011;22982;42.848;25.468;2023-06-22T23:53:18;16.08;;;13.95;;
37067;SDS011;22982;42.848;25.468;2023-06-22T23:58:21;17.42;;;14.05;;
